Data for 11/23/2014

Time Sea-Level Adjusted Pressure Absolute Pressure Temperature Relative Humidity Dew Point   
(mb) (inHg) (mb) (inHg) (C) (F) (%) (C) (F)
00:05 1010 29.83 839 24.78 0.3 32.5 53 -8.3 17.1
00:10 1010 29.83 839 24.78 0.3 32.5 53 -8.2 17.3
00:15 1010 29.83 839 24.78 0.3 32.5 54 -8 17.6
00:20 1010 29.83 839 24.78 0.2 32.3 55 -7.9 17.7
00:25 1010 29.83 839 24.78 0.1 32.1 56 -7.7 18.1
00:30 1010 29.83 839 24.78 0.1 32.1 57 -7.5 18.5
00:35 1010 29.83 839 24.78 0.1 32.1 58 -7.3 18.8
00:40 1010 29.83 839 24.78 0 32 59 -7.1 19.2
00:45 1010 29.83 839 24.78 -0 31.9 60 -6.9 19.6
00:50 1010 29.83 839 24.78 -0.1 31.9 61 -6.7 19.9
00:55 1010 29.83 839 24.78 -0.1 31.8 62 -6.5 20.2
01:00 1010 29.83 839 24.78 -0.2 31.7 63 -6.4 20.5
01:05 1010 29.83 840 24.81 -0.2 31.6 64 -6.3 20.6
01:10 1010 29.83 840 24.81 -0.3 31.5 64 -6.2 20.8
01:15 1011 29.85 840 24.81 -0.3 31.4 65 -6.2 20.9
01:20 1011 29.85 840 24.81 -0.4 31.4 66 -6 21.3
01:25 1011 29.85 840 24.81 -0.4 31.3 66 -5.9 21.3
01:30 1011 29.85 840 24.81 -0.3 31.4 66 -6 21.3
01:35 1011 29.85 840 24.81 -0.3 31.4 67 -5.7 21.7
01:40 1011 29.85 840 24.81 -0.4 31.3 66 -5.9 21.4
01:45 1011 29.85 840 24.81 -0.4 31.3 67 -5.8 21.5
01:50 1011 29.85 840 24.81 -0.4 31.3 68 -5.5 22
01:55 1011 29.85 840 24.81 -0.4 31.3 69 -5.5 22.2
02:00 1011 29.85 840 24.81 -0.4 31.2 69 -5.4 22.3
02:05 1011 29.85 840 24.81 -0.5 31.1 69 -5.4 22.2
02:10 1011 29.85 840 24.81 -0.6 31 70 -5.3 22.5
02:15 1011 29.85 841 24.83 -0.6 30.9 71 -5.1 22.8
02:20 1012 29.88 841 24.83 -0.7 30.7 78 -4.1 24.7
02:25 1012 29.88 841 24.83 -1.4 29.4 88 -3.2 26.3
02:30 1012 29.88 841 24.83 -2 28.5 91 -3.2 26.3
02:35 1012 29.88 841 24.83 -2.1 28.2 93 -3.2 26.3
02:40 1012 29.88 841 24.83 -2.2 28.1 93 -3.2 26.2
02:45 1012 29.88 841 24.83 -2.2 28 93 -3.3 26.1
02:50 1012 29.88 841 24.83 -2.3 27.8 93 -3.4 25.9
02:55 1012 29.88 841 24.83 -2.5 27.6 92 -3.5 25.6
03:00 1012 29.88 841 24.83 -2.6 27.3 92 -3.7 25.4
03:05 1012 29.88 841 24.83 -2.6 27.4 91 -3.8 25.2
03:10 1012 29.88 841 24.83 -2.4 27.6 90 -3.8 25.1
03:15 1012 29.88 841 24.83 -2.3 27.8 90 -3.8 25.1
03:20 1012 29.88 842 24.86 -2.3 27.8 90 -3.8 25.1
03:25 1012 29.88 842 24.86 -2.3 27.8 89 -3.9 25
03:30 1012 29.88 842 24.86 -2.2 28 88 -4 24.8
03:35 1012 29.88 842 24.86 -2.2 28 87 -4.1 24.7
03:40 1012 29.88 842 24.86 -2.1 28.2 86 -4.2 24.4
03:45 1012 29.88 842 24.86 -2 28.4 84 -4.3 24.3
03:50 1012 29.88 842 24.86 -1.9 28.6 83 -4.5 23.9
03:55 1013 29.91 842 24.86 -1.8 28.8 80 -4.8 23.3
04:00 1013 29.91 842 24.86 -1.4 29.4 76 -5 22.9
04:05 1013 29.91 842 24.86 -1.3 29.6 80 -4.4 24.2
04:10 1013 29.91 842 24.86 -1.6 29.2 83 -4.2 24.5
04:15 1013 29.91 842 24.86 -1.8 28.7 84 -4.1 24.6
04:20 1013 29.91 842 24.86 -2 28.4 85 -4.2 24.5
04:25 1013 29.91 843 24.89 -2.1 28.2 86 -4.1 24.5
04:30 1013 29.91 842 24.86 -2.3 27.9 87 -4.2 24.4
04:35 1013 29.91 842 24.86 -2.3 27.8 86 -4.3 24.2
04:40 1013 29.91 843 24.89 -2.3 27.8 86 -4.3 24.3
04:45 1013 29.91 843 24.89 -2.3 27.9 86 -4.4 24.2
04:50 1014 29.94 843 24.89 -2.3 27.9 86 -4.3 24.2
04:55 1014 29.94 843 24.89 -2.3 27.9 86 -4.3 24.2
05:00 1014 29.94 843 24.89 -2.3 27.8 87 -4.2 24.5
05:05 1014 29.94 843 24.89 -2.5 27.6 88 -4.2 24.4
05:10 1014 29.94 843 24.89 -2.5 27.5 88 -4.2 24.4
05:15 1014 29.94 843 24.89 -2.6 27.3 88 -4.3 24.2
05:20 1013 29.91 843 24.89 -2.7 27.1 88 -4.4 24
05:25 1013 29.91 843 24.89 -2.8 27 88 -4.5 23.9
05:30 1013 29.91 843 24.89 -2.8 26.9 88 -4.5 23.8
05:35 1014 29.94 843 24.89 -2.7 27.1 88 -4.5 23.9
05:40 1014 29.94 843 24.89 -2.6 27.2 87 -4.6 23.8
05:45 1014 29.94 843 24.89 -2.6 27.4 86 -4.6 23.8
05:50 1014 29.94 843 24.89 -2.6 27.4 86 -4.6 23.6
05:55 1014 29.94 843 24.89 -2.6 27.4 85 -4.7 23.5
06:00 1014 29.94 843 24.89 -2.5 27.5 84 -4.9 23.2
06:05 1014 29.94 843 24.89 -2.4 27.7 82 -5.1 22.9
06:10 1014 29.94 843 24.89 -2.3 27.9 80 -5.2 22.6
06:15 1014 29.94 844 24.92 -2.1 28.2 77 -5.6 21.9
06:20 1014 29.94 844 24.92 -1.9 28.6 77 -5.5 22.1
06:25 1015 29.97 844 24.92 -2 28.4 77 -5.5 22.1
06:30 1014 29.94 844 24.92 -2.1 28.2 77 -5.6 21.9
06:35 1014 29.94 844 24.92 -2.2 28.1 77 -5.7 21.8
06:40 1014 29.94 844 24.92 -2.3 27.9 77 -5.7 21.7
06:45 1014 29.94 844 24.92 -2.4 27.7 78 -5.8 21.5
06:50 1015 29.97 844 24.92 -2.5 27.5 78 -5.9 21.4
06:55 1015 29.97 844 24.92 -2.6 27.4 78 -5.9 21.4
07:00 1015 29.97 844 24.92 -2.6 27.3 77 -6 21.2
07:05 1015 29.97 844 24.92 -2.6 27.4 77 -6.1 21.1
07:10 1015 29.97 844 24.92 -2.6 27.3 77 -6.1 21
07:15 1015 29.97 844 24.92 -2.6 27.3 77 -6.2 20.9
07:20 1015 29.97 844 24.92 -2.7 27.2 77 -6.1 20.9
07:25 1015 29.97 844 24.92 -2.8 27 78 -6.1 21
07:30 1015 29.97 844 24.92 -2.7 27.2 78 -6.1 21.1
07:35 1015 29.97 844 24.92 -2.6 27.2 78 -6 21.1
07:40 1015 29.97 844 24.92 -2.8 27.1 78 -6 21.2
07:45 1015 29.97 844 24.92 -2.8 27 78 -6.1 21
07:50 1015 29.97 844 24.92 -2.8 27 76 -6.5 20.3
07:55 1015 29.97 845 24.95 -2.7 27.2 75 -6.4 20.4
08:00 1015 29.97 845 24.95 -2.5 27.6 72 -6.9 19.6
08:05 1015 29.97 845 24.95 -2.1 28.2 70 -6.8 19.7
08:10 1015 29.97 845 24.95 -1.9 28.6 70 -6.6 20.1
08:15 1016 30 845 24.95 -1.8 28.7 70 -6.5 20.3
08:20 1016 30 845 24.95 -1.8 28.8 71 -6.4 20.5
08:25 1016 30 845 24.95 -1.8 28.8 71 -6.3 20.6
08:30 1016 30 845 24.95 -1.8 28.8 71 -6.3 20.6
08:35 1016 30 845 24.95 -1.8 28.8 72 -6.3 20.7
08:40 1016 30 845 24.95 -1.8 28.8 72 -6.2 20.9
08:45 1016 30 845 24.95 -1.8 28.7 72 -6.2 20.8
08:50 1016 30 845 24.95 -1.8 28.8 72 -6.1 21
08:55 1016 30 845 24.95 -1.8 28.8 72 -6.1 21
09:00 1016 30 845 24.95 -1.8 28.8 72 -6.2 20.9
09:05 1016 30 846 24.98 -1.7 28.9 71 -6.3 20.6
09:10 1016 30 846 24.98 -1.6 29.1 71 -6.2 20.9
09:15 1016 30 846 24.98 -1.6 29.1 71 -6.3 20.7
09:20 1016 30 846 24.98 -1.6 29 70 -6.4 20.4
09:25 1017 30.03 846 24.98 -1.6 29.1 69 -6.5 20.3
09:30 1017 30.03 846 24.98 -1.7 29 69 -6.6 20.1
09:35 1017 30.03 846 24.98 -1.7 29 68 -6.9 19.7
09:40 1017 30.03 846 24.98 -1.6 29.1 66 -7.1 19.3
09:45 1017 30.03 846 24.98 -1.5 29.3 65 -7.2 19
09:50 1017 30.03 846 24.98 -1.4 29.4 64 -7.4 18.7
09:55 1017 30.03 846 24.98 -1.3 29.6 64 -7.3 18.9
10:00 1017 30.03 846 24.98 -1.3 29.7 63 -7.5 18.5
10:05 1017 30.03 846 24.98 -1.2 29.8 63 -7.4 18.8
10:10 1017 30.03 846 24.98 -1.2 29.9 62 -7.5 18.5
10:15 1017 30.03 846 24.98 -1.1 30 62 -7.6 18.3
10:20 1017 30.03 847 25.01 -1.1 30.1 61 -7.7 18.1
10:25 1017 30.03 847 25.01 -1 30.2 60 -7.8 18
10:30 1017 30.03 847 25.01 -0.9 30.3 58 -8.2 17.3
10:35 1018 30.06 847 25.01 -0.8 30.5 59 -7.9 17.7
10:40 1018 30.06 847 25.01 -0.8 30.6 59 -7.8 18
10:45 1018 30.06 847 25.01 -0.8 30.6 60 -7.6 18.3
10:50 1018 30.06 847 25.01 -0.6 30.9 59 -7.7 18.1
10:55 1018 30.06 847 25.01 -0.6 31 59 -7.7 18.2
11:00 1018 30.06 847 25.01 -0.6 30.9 59 -7.7 18.2
11:05 1018 30.06 847 25.01 -0.7 30.8 58 -8 17.7
11:10 1018 30.06 847 25.01 -0.3 31.5 56 -8 17.6
11:15 1018 30.06 847 25.01 0.3 32.6 53 -8.1 17.4
11:20 1018 30.06 847 25.01 0.6 33 54 -7.7 18.1
11:25 1018 30.06 847 25.01 0.5 33 54 -7.7 18.1
11:30 1018 30.06 847 25.01 0.5 33 54 -7.7 18.1
11:35 1018 30.06 847 25.01 1 33.7 53 -7.7 18.2
11:40 1018 30.06 847 25.01 1.6 34.9 49 -7.9 17.8
11:45 1018 30.06 847 25.01 1.6 34.9 49 -8 17.6
11:50 1018 30.06 847 25.01 1.8 35.2 48 -8.1 17.4
11:55 1018 30.06 847 25.01 1.7 35 48 -8.1 17.4
12:00 1018 30.06 847 25.01 2.1 35.7 45 -8.7 16.3
12:05 1018 30.06 847 25.01 2 35.6 46 -8.4 17
12:10 1018 30.06 847 25.01 1.9 35.4 45 -8.9 16.1
12:15 1018 30.06 847 25.01 1.6 34.8 46 -8.8 16.2
12:20 1018 30.06 847 25.01 1.4 34.6 44 -9.5 14.9
12:25 1018 30.06 847 25.01 1.2 34.2 45 -9.4 15.1
12:30 1018 30.06 848 25.04 1.7 35.1 44 -9.2 15.5
12:35 1018 30.06 848 25.04 2.5 36.5 43 -8.8 16.2
12:40 1018 30.06 848 25.04 2.3 36.2 44 -8.8 16.1
12:45 1018 30.06 847 25.01 1.8 35.3 46 -8.6 16.6
12:50 1018 30.06 847 25.01 1.5 34.8 46 -8.8 16.1
12:55 1018 30.06 847 25.01 1.5 34.7 45 -9.2 15.4
13:00 1018 30.06 847 25.01 1.5 34.7 47 -8.7 16.3
13:05 1018 30.06 847 25.01 1.6 34.8 45 -9.1 15.6
13:10 1018 30.06 847 25.01 1.4 34.6 44 -9.4 15
13:15 1018 30.06 847 25.01 1.4 34.4 46 -9.2 15.5
13:20 1018 30.06 847 25.01 1.5 34.8 45 -9.2 15.4
13:25 1018 30.06 847 25.01 1.7 35.1 45 -8.9 16
13:30 1018 30.06 847 25.01 1.6 34.9 46 -8.8 16.2
13:35 1018 30.06 847 25.01 1.7 35 46 -8.8 16.2
13:40 1017 30.03 847 25.01 1.7 35.1 44 -9.1 15.6
13:45 1017 30.03 847 25.01 1.8 35.3 43 -9.5 15
13:50 1017 30.03 847 25.01 1.9 35.5 44 -9 15.7
13:55 1017 30.03 847 25.01 2.1 35.7 43 -9.4 15.1
14:00 1017 30.03 847 25.01 2 35.6 42 -9.6 14.7
14:05 1017 30.03 847 25.01 2 35.6 42 -9.8 14.4
14:10 1017 30.03 847 25.01 2 35.6 42 -9.8 14.4
14:15 1017 30.03 847 25.01 1.9 35.5 44 -9.2 15.4
14:20 1017 30.03 846 24.98 2 35.6 41 -9.9 14.1
14:25 1017 30.03 846 24.98 2 35.6 40 -10.4 13.3
14:30 1017 30.03 846 24.98 1.9 35.5 40 -10.1 13.8
14:35 1017 30.03 846 24.98 1.9 35.4 42 -9.6 14.8
14:40 1017 30.03 846 24.98 1.9 35.4 41 -10.1 13.9
14:45 1017 30.03 846 24.98 2 35.5 41 -9.9 14.1
14:50 1017 30.03 846 24.98 2 35.5 41 -10 14
14:55 1017 30.03 846 24.98 2 35.6 40 -10.1 13.9
15:00 1017 30.03 846 24.98 2.1 35.8 40 -10.1 13.9
15:05 1017 30.03 846 24.98 2.2 35.9 40 -10.1 13.9
15:10 1017 30.03 846 24.98 2.3 36.2 38 -10.7 12.7
15:15 1017 30.03 846 24.98 2.7 36.8 38 -10.4 13.2
15:20 1017 30.03 846 24.98 2.6 36.6 39 -10.2 13.7
15:25 1017 30.03 846 24.98 2.5 36.6 41 -9.4 15.1
15:30 1017 30.03 846 24.98 2.9 37.3 39 -9.8 14.3
15:35 1017 30.03 846 24.98 3.3 37.9 38 -9.7 14.5
15:40 1017 30.03 846 24.98 3 37.4 38 -9.8 14.3
15:45 1016 30 846 24.98 2.8 37 40 -9.5 14.9
15:50 1016 30 846 24.98 2.5 36.5 41 -9.6 14.8
15:55 1016 30 846 24.98 2.4 36.3 41 -9.6 14.7
16:00 1016 30 846 24.98 2.3 36.1 41 -9.6 14.8
16:05 1016 30 846 24.98 2.3 36.1 43 -9.1 15.6
16:10 1016 30 846 24.98 2.1 35.9 44 -8.9 15.9
16:15 1016 30 846 24.98 2 35.7 45 -8.8 16.2
16:20 1016 30 846 24.98 2.1 35.7 44 -9.1 15.7
16:25 1016 30 845 24.95 2 35.6 45 -8.8 16.2
16:30 1016 30 845 24.95 2 35.6 44 -9 15.8
16:35 1016 30 845 24.95 1.9 35.5 44 -9 15.9
16:40 1016 30 845 24.95 1.9 35.4 45 -8.7 16.3
16:45 1016 30 845 24.95 1.9 35.4 46 -8.7 16.4
16:50 1016 30 845 24.95 1.8 35.3 46 -8.6 16.5
16:55 1016 30 845 24.95 1.8 35.2 46 -8.6 16.5
17:00 1016 30 845 24.95 1.7 35 47 -8.6 16.6
17:05 1016 30 845 24.95 1.6 34.9 45 -9 15.8
17:10 1016 30 845 24.95 1.6 34.9 45 -8.9 15.9
17:15 1016 30 845 24.95 1.6 34.8 44 -9.3 15.3
17:20 1016 30 845 24.95 1.5 34.8 46 -9 15.8
17:25 1016 30 845 24.95 1.5 34.6 46 -9 15.9
17:30 1016 30 845 24.95 1.4 34.6 47 -8.8 16.1
17:35 1016 30 845 24.95 1.4 34.5 47 -8.8 16.2
17:40 1016 30 845 24.95 1.3 34.4 48 -8.5 16.6
17:45 1016 30 845 24.95 1.2 34.2 49 -8.4 16.8
17:50 1016 30 845 24.95 1.2 34.1 48 -8.6 16.5
17:55 1016 30 845 24.95 1.2 34.2 46 -9.1 15.7
18:00 1016 30 845 24.95 1.3 34.3 47 -8.9 15.9
18:05 1016 30 845 24.95 1.2 34.2 47 -9 15.9
18:10 1016 30 845 24.95 1.2 34.1 46 -9.3 15.2
18:15 1016 30 845 24.95 1.3 34.3 45 -9.4 15
18:20 1016 30 845 24.95 1.3 34.3 45 -9.4 15
18:25 1015 29.97 845 24.95 1.2 34.2 45 -9.4 15.2
18:30 1016 30 845 24.95 1.2 34.2 44 -9.6 14.7
18:35 1015 29.97 845 24.95 1.2 34.1 46 -9.1 15.6
18:40 1015 29.97 845 24.95 1 33.9 47 -9.2 15.5
18:45 1015 29.97 845 24.95 1.2 34.2 44 -9.7 14.5
18:50 1015 29.97 845 24.95 1.4 34.6 43 -9.8 14.4
18:55 1015 29.97 844 24.92 1.5 34.6 44 -9.4 15
19:00 1015 29.97 844 24.92 1.3 34.4 45 -9.4 15.1
19:05 1015 29.97 844 24.92 1.2 34.2 46 -9.1 15.6
19:10 1015 29.97 844 24.92 1.1 33.9 47 -8.9 15.9
19:15 1015 29.97 844 24.92 1.1 34.1 45 -9.4 15.1
19:20 1015 29.97 844 24.92 1.4 34.5 44 -9.5 14.9
19:25 1015 29.97 844 24.92 1.5 34.6 43 -9.9 14.2
19:30 1014 29.94 843 24.89 1.7 35 42 -10 14.1
19:35 1014 29.94 843 24.89 1.8 35.2 41 -10.1 13.7
19:40 1014 29.94 844 24.92 1.8 35.3 42 -9.6 14.6
19:45 1014 29.94 844 24.92 1.7 35 42 -9.8 14.3
19:50 1014 29.94 844 24.92 1.7 35.1 42 -10 14.1
19:55 1014 29.94 844 24.92 1.7 35.1 43 -9.6 14.7
20:00 1014 29.94 844 24.92 1.6 34.9 43 -9.6 14.7
20:05 1014 29.94 844 24.92 1.5 34.8 43 -9.8 14.4
20:10 1014 29.94 844 24.92 1.5 34.6 44 -9.5 14.8
20:15 1014 29.94 844 24.92 1.4 34.5 43 -9.8 14.4
20:20 1014 29.94 844 24.92 1.5 34.6 43 -9.7 14.5
20:25 1014 29.94 843 24.89 1.4 34.5 44 -9.5 15
20:30 1014 29.94 844 24.92 1.2 34.1 46 -9.1 15.6
20:35 1014 29.94 844 24.92 1.1 34 46 -9.4 15.1
20:40 1014 29.94 843 24.89 1.2 34.1 46 -9.3 15.3
20:45 1014 29.94 843 24.89 1.2 34.2 45 -9.5 14.9
20:50 1014 29.94 843 24.89 1.3 34.3 46 -9.2 15.5
20:55 1014 29.94 843 24.89 1.2 34.1 45 -9.4 15.1
21:00 1014 29.94 843 24.89 1.2 34.2 46 -9.2 15.5
21:05 1014 29.94 843 24.89 1.2 34.1 47 -8.9 16
21:10 1014 29.94 843 24.89 1.1 34 47 -8.9 15.9
21:15 1014 29.94 843 24.89 1.1 34 47 -9.1 15.7
21:20 1014 29.94 843 24.89 1.1 34.1 46 -9.2 15.4
21:25 1014 29.94 843 24.89 1.2 34.1 46 -9.2 15.5
21:30 1014 29.94 843 24.89 1.2 34.1 46 -9.2 15.4
21:35 1014 29.94 843 24.89 1.2 34.1 47 -8.9 16
21:40 1014 29.94 844 24.92 1.2 34.2 47 -8.9 15.9
21:45 1014 29.94 844 24.92 1.6 34.8 45 -9.1 15.7
21:50 1014 29.94 843 24.89 1.9 35.3 46 -8.5 16.6
21:55 1014 29.94 843 24.89 1.8 35.2 46 -8.7 16.3
22:00 1014 29.94 843 24.89 1.7 35.1 48 -8.2 17.3
22:05 1014 29.94 843 24.89 1.5 34.8 50 -7.7 18.2
22:10 1014 29.94 843 24.89 1.3 34.4 51 -7.7 18.2
22:15 1014 29.94 843 24.89 1.3 34.3 52 -7.5 18.6
22:20 1014 29.94 843 24.89 1 33.8 56 -6.9 19.5
22:25 1014 29.94 843 24.89 0.8 33.4 56 -7 19.3
22:30 1014 29.94 843 24.89 0.7 33.3 55 -7.3 18.9
22:35 1014 29.94 843 24.89 0.8 33.5 54 -7.4 18.6
22:40 1014 29.94 843 24.89 0.9 33.6 54 -7.3 18.9
22:45 1014 29.94 843 24.89 0.8 33.5 54 -7.4 18.7
22:50 1014 29.94 843 24.89 0.8 33.4 54 -7.5 18.4
22:55 1014 29.94 843 24.89 0.8 33.4 54 -7.5 18.5
23:00 1014 29.94 843 24.89 0.7 33.3 54 -7.5 18.5
23:05 1014 29.94 843 24.89 0.8 33.4 51 -8.1 17.4
23:10 1014 29.94 843 24.89 1 33.9 50 -8.4 17
23:15 1014 29.94 843 24.89 1.2 34.1 49 -8.3 17
23:20 1014 29.94 843 24.89 1.2 34.2 49 -8.4 16.9
23:25 1014 29.94 843 24.89 1.2 34.1 50 -8.2 17.2
23:30 1014 29.94 843 24.89 1.1 33.9 50 -8.3 17
23:35 1014 29.94 843 24.89 1 33.8 50 -8.4 16.8
23:40 1014 29.94 843 24.89 0.9 33.7 50 -8.4 16.9
23:45 1014 29.94 843 24.89 0.9 33.7 50 -8.4 16.9
23:50 1014 29.94 843 24.89 0.9 33.7 49 -8.6 16.6
23:55 1014 29.94 843 24.89 1.1 33.9 48 -8.7 16.3
24:00 1014 29.94 843 24.89 1.1 34 49 -8.4 16.8